createdAt,value
2019-05-19T00:02:05.492Z,13.32
2019-05-19T00:04:35.004Z,13.29
2019-05-19T00:07:04.258Z,13.37
2019-05-19T00:09:33.609Z,13.29
2019-05-19T00:12:03.064Z,13.21
2019-05-19T00:14:32.356Z,13.19
2019-05-19T00:17:01.658Z,13.11
2019-05-19T00:19:32.426Z,13.19
2019-05-19T00:22:01.718Z,13.11
2019-05-19T00:24:31.015Z,13.10
2019-05-19T00:27:00.343Z,12.98
2019-05-19T00:29:29.617Z,12.92
2019-05-19T00:31:59.020Z,12.81
2019-05-19T00:34:28.328Z,12.73
2019-05-19T00:36:57.599Z,12.69
2019-05-19T00:39:26.897Z,12.63
2019-05-19T00:41:56.404Z,12.62
2019-05-19T00:44:26.799Z,12.64
2019-05-19T00:46:56.064Z,12.66
2019-05-19T00:49:25.390Z,12.61
2019-05-19T00:51:54.847Z,12.54
2019-05-19T00:54:24.129Z,12.53
2019-05-19T00:56:53.845Z,12.52
2019-05-19T00:59:24.218Z,12.51
2019-05-19T01:01:53.490Z,12.42
2019-05-19T01:04:24.224Z,12.42
2019-05-19T01:06:53.775Z,12.30
2019-05-19T01:09:23.059Z,12.24
2019-05-19T01:11:52.332Z,12.27
2019-05-19T01:14:21.620Z,12.26
2019-05-19T01:16:50.896Z,12.20
2019-05-19T01:19:20.203Z,12.07
2019-05-19T01:21:50.295Z,12.03
2019-05-19T01:24:19.591Z,12.07
2019-05-19T01:26:48.891Z,12.04
2019-05-19T01:29:18.186Z,12.10
2019-05-19T01:31:47.464Z,11.96
2019-05-19T01:34:16.735Z,11.98
2019-05-19T01:36:46.055Z,11.95
2019-05-19T01:39:15.314Z,12.01
2019-05-19T01:41:44.619Z,12.02
2019-05-19T01:44:13.888Z,12.03
2019-05-19T01:46:43.149Z,11.96
2019-05-19T01:49:12.500Z,11.81
2019-05-19T01:51:41.749Z,11.76
2019-05-19T01:54:11.071Z,11.74
2019-05-19T01:56:41.251Z,11.70
2019-05-19T01:59:10.629Z,11.59
2019-05-19T02:01:39.914Z,11.57
2019-05-19T02:04:09.345Z,11.57
2019-05-19T02:06:38.621Z,11.57
2019-05-19T02:09:08.394Z,11.47
2019-05-19T02:11:37.673Z,11.30
2019-05-19T02:14:07.130Z,11.45
2019-05-19T02:16:36.486Z,11.50
2019-05-19T02:19:05.895Z,11.47
2019-05-19T02:21:35.182Z,11.39
2019-05-19T02:24:04.535Z,11.38
2019-05-19T02:26:33.809Z,11.32
2019-05-19T02:29:03.063Z,11.45
2019-05-19T02:31:32.413Z,11.40
2019-05-19T02:34:01.701Z,11.24
2019-05-19T02:36:30.973Z,11.18
2019-05-19T02:39:01.422Z,11.14
2019-05-19T02:41:32.725Z,11.14
2019-05-19T02:44:03.342Z,11.11
2019-05-19T02:46:34.483Z,11.05
2019-05-19T02:49:05.837Z,11.02
2019-05-19T02:51:35.445Z,11.08
2019-05-19T02:54:06.200Z,10.97
2019-05-19T02:56:36.188Z,10.96
2019-05-19T02:59:06.275Z,10.87
2019-05-19T03:01:37.771Z,10.97
2019-05-19T03:04:07.036Z,10.81
2019-05-19T03:06:36.360Z,10.83
2019-05-19T03:09:06.126Z,10.82
2019-05-19T03:11:35.408Z,10.73
2019-05-19T03:14:04.772Z,10.86
2019-05-19T03:16:34.075Z,10.99
2019-05-19T03:19:03.378Z,10.84
2019-05-19T03:21:32.651Z,10.83
2019-05-19T03:24:01.950Z,10.67
2019-05-19T03:26:31.204Z,10.66
2019-05-19T03:29:00.462Z,10.65
2019-05-19T03:31:36.086Z,10.59
2019-05-19T03:34:06.909Z,10.61
2019-05-19T03:36:36.221Z,10.53
2019-05-19T03:39:07.258Z,10.49
2019-05-19T03:41:36.587Z,10.48
2019-05-19T03:44:05.862Z,10.50
2019-05-19T03:46:35.168Z,10.51
2019-05-19T03:49:06.227Z,10.45
2019-05-19T03:51:35.592Z,10.39
2019-05-19T03:54:04.847Z,10.55
2019-05-19T03:56:34.314Z,10.54
2019-05-19T03:59:03.607Z,10.69
2019-05-19T04:01:32.877Z,10.63
2019-05-19T04:04:02.224Z,10.57
2019-05-19T04:06:31.616Z,10.61
2019-05-19T04:09:00.908Z,10.73
2019-05-19T04:11:30.183Z,10.75
2019-05-19T04:14:01.278Z,10.91
2019-05-19T04:16:30.562Z,10.89
2019-05-19T04:18:59.846Z,10.97
2019-05-19T04:21:38.812Z,10.96
2019-05-19T04:24:00.189Z,11.02
2019-05-19T04:26:29.457Z,11.04
2019-05-19T04:28:58.791Z,11.14
2019-05-19T04:31:28.060Z,11.32
2019-05-19T04:33:57.337Z,11.25
2019-05-19T04:36:26.614Z,11.20
2019-05-19T04:38:57.328Z,11.35
2019-05-19T04:41:26.626Z,11.42
2019-05-19T04:43:55.939Z,11.36
2019-05-19T04:46:25.234Z,11.50
2019-05-19T04:48:54.554Z,11.46
2019-05-19T04:51:23.878Z,11.52
2019-05-19T04:53:53.107Z,11.41
2019-05-19T04:56:22.415Z,11.52
2019-05-19T04:58:51.711Z,11.60
2019-05-19T05:01:20.990Z,11.43
2019-05-19T05:03:50.269Z,11.61
2019-05-19T05:06:20.761Z,11.60
2019-05-19T05:08:50.035Z,11.60
2019-05-19T05:11:19.320Z,11.92
2019-05-19T05:13:48.626Z,12.10
2019-05-19T05:16:19.125Z,12.20
2019-05-19T05:18:48.448Z,12.32
2019-05-19T05:21:17.739Z,12.55
2019-05-19T05:23:47.043Z,12.48
2019-05-19T05:26:16.354Z,12.54
2019-05-19T05:28:45.650Z,12.64
2019-05-19T05:31:15.656Z,12.63
2019-05-19T05:33:45.014Z,12.50
2019-05-19T05:36:14.291Z,12.53
2019-05-19T05:38:43.629Z,12.55
2019-05-19T05:41:13.894Z,12.67
2019-05-19T05:43:43.175Z,12.85
2019-05-19T05:46:14.264Z,12.76
2019-05-19T05:48:43.623Z,12.87
2019-05-19T05:51:15.339Z,13.01
2019-05-19T05:53:44.603Z,13.03
2019-05-19T05:56:14.999Z,13.22
2019-05-19T05:58:44.323Z,13.49
2019-05-19T06:01:13.741Z,13.40
2019-05-19T06:03:43.042Z,13.60
2019-05-19T06:06:12.355Z,13.69
2019-05-19T06:08:41.753Z,13.91
2019-05-19T06:11:13.092Z,14.03
2019-05-19T06:13:43.950Z,14.14
2019-05-19T06:16:13.383Z,14.12
2019-05-19T06:18:42.773Z,14.34
2019-05-19T06:21:12.117Z,14.56
2019-05-19T06:23:41.437Z,14.79
2019-05-19T06:26:10.717Z,14.85
2019-05-19T06:28:40.024Z,15.23
2019-05-19T06:31:09.312Z,15.16
2019-05-19T06:33:38.688Z,15.26
2019-05-19T06:36:08.020Z,15.28
2019-05-19T06:38:37.357Z,15.54
2019-05-19T06:41:06.661Z,15.50
2019-05-19T06:43:35.989Z,15.55
2019-05-19T06:46:05.248Z,15.69
2019-05-19T06:48:34.553Z,16.05
2019-05-19T06:51:06.516Z,16.19
2019-05-19T06:53:35.786Z,16.24
2019-05-19T06:56:05.091Z,16.43
2019-05-19T06:58:34.386Z,16.49
2019-05-19T07:01:06.725Z,16.45
2019-05-19T07:03:36.052Z,16.69
2019-05-19T07:06:05.379Z,17.32
2019-05-19T07:08:34.663Z,17.75
2019-05-19T07:11:03.957Z,18.22
2019-05-19T07:13:33.249Z,19.98
2019-05-19T07:16:02.562Z,21.18
2019-05-19T07:18:32.478Z,23.21
2019-05-19T07:21:02.376Z,22.27
2019-05-19T07:23:32.390Z,23.11
2019-05-19T07:26:01.928Z,25.53
2019-05-19T07:28:31.325Z,23.86
2019-05-19T07:31:00.588Z,25.18
2019-05-19T07:33:29.929Z,27.19
2019-05-19T07:36:00.343Z,26.19
2019-05-19T07:38:29.731Z,24.89
2019-05-19T07:40:59.019Z,26.59
2019-05-19T07:43:30.941Z,27.70
2019-05-19T07:46:00.235Z,27.65
2019-05-19T07:48:29.631Z,26.78
2019-05-19T07:51:00.030Z,26.88
2019-05-19T07:53:42.227Z,27.83
2019-05-19T07:56:00.394Z,27.63
2019-05-19T07:58:29.732Z,28.36
2019-05-19T08:01:00.531Z,26.16
2019-05-19T08:03:29.898Z,28.10
2019-05-19T08:05:59.178Z,26.93
2019-05-19T08:08:28.493Z,26.78
2019-05-19T08:10:57.808Z,26.53
2019-05-19T08:13:27.114Z,28.22
2019-05-19T08:15:58.489Z,25.43
2019-05-19T08:18:27.811Z,26.02
2019-05-19T08:20:57.335Z,25.72
2019-05-19T08:23:26.672Z,27.94
2019-05-19T08:25:56.015Z,26.55
2019-05-19T08:28:25.305Z,25.30
2019-05-19T08:30:54.605Z,24.62
2019-05-19T08:33:23.913Z,26.31
2019-05-19T08:35:53.249Z,26.10
2019-05-19T08:38:22.548Z,27.62
2019-05-19T08:40:51.944Z,27.29
2019-05-19T08:43:21.288Z,27.68
2019-05-19T08:45:50.574Z,26.80
2019-05-19T08:48:19.893Z,28.31
2019-05-19T08:50:49.202Z,26.46
2019-05-19T08:53:19.910Z,26.99
2019-05-19T08:55:49.236Z,26.37
2019-05-19T08:58:18.993Z,26.98
2019-05-19T09:00:48.396Z,28.33
2019-05-19T09:03:17.698Z,26.91
2019-05-19T09:05:47.971Z,26.27
2019-05-19T09:08:17.645Z,27.93
2019-05-19T09:10:48.161Z,28.05
2019-05-19T09:13:17.507Z,27.96
2019-05-19T09:15:46.957Z,26.18
2019-05-19T09:18:17.190Z,26.64
2019-05-19T09:20:47.645Z,27.19
2019-05-19T09:23:17.074Z,27.50
2019-05-19T09:25:46.575Z,29.76
2019-05-19T09:28:16.466Z,28.08
2019-05-19T09:30:45.957Z,27.92
2019-05-19T09:33:15.705Z,26.83
2019-05-19T09:35:45.092Z,28.04
2019-05-19T09:38:14.624Z,26.02
2019-05-19T09:40:43.917Z,27.35
2019-05-19T09:43:13.564Z,26.31
2019-05-19T09:45:47.118Z,27.06
2019-05-19T09:48:19.157Z,28.63
2019-05-19T09:50:48.558Z,26.70
2019-05-19T09:53:18.296Z,26.62
2019-05-19T09:55:47.787Z,26.24
2019-05-19T09:58:19.986Z,27.36
2019-05-19T10:00:48.567Z,28.21
2019-05-19T10:03:19.769Z,26.82
2019-05-19T10:05:50.299Z,27.23
2019-05-19T10:08:31.102Z,26.76
2019-05-19T10:11:27.927Z,26.94
2019-05-19T10:13:57.306Z,27.61
2019-05-19T10:16:26.584Z,26.26
2019-05-19T10:18:55.885Z,27.88
2019-05-19T10:21:25.244Z,27.67
2019-05-19T10:23:54.552Z,27.37
2019-05-19T10:26:23.860Z,26.75
2019-05-19T10:28:53.291Z,28.46
2019-05-19T10:31:22.645Z,28.10
2019-05-19T10:33:53.393Z,27.64
2019-05-19T10:36:22.682Z,27.70
2019-05-19T10:38:51.942Z,28.60
2019-05-19T10:41:21.222Z,28.29
2019-05-19T10:44:00.696Z,28.12
2019-05-19T10:46:30.491Z,28.63
2019-05-19T10:48:59.794Z,26.93
2019-05-19T10:51:29.143Z,27.57
2019-05-19T10:53:58.430Z,28.45
2019-05-19T10:56:27.804Z,26.82
2019-05-19T10:58:57.155Z,26.28
2019-05-19T11:01:27.947Z,26.97
2019-05-19T11:03:57.401Z,27.76
2019-05-19T11:06:26.714Z,28.23
2019-05-19T11:08:56.020Z,28.21
2019-05-19T11:11:26.779Z,28.00
2019-05-19T11:13:57.871Z,27.21
2019-05-19T11:16:27.656Z,26.32
2019-05-19T11:18:58.566Z,25.49
2019-05-19T11:21:27.892Z,24.88
2019-05-19T11:23:57.198Z,24.43
2019-05-19T11:26:26.505Z,24.45
2019-05-19T11:28:55.800Z,24.01
2019-05-19T11:31:25.111Z,24.61
2019-05-19T11:33:54.403Z,24.68
2019-05-19T11:36:27.139Z,25.23
2019-05-19T11:38:56.388Z,25.70
2019-05-19T11:41:25.799Z,25.68
2019-05-19T11:43:56.515Z,25.16
2019-05-19T11:46:25.941Z,25.29
2019-05-19T11:48:55.239Z,25.50
2019-05-19T11:51:24.593Z,25.48
2019-05-19T11:53:53.940Z,24.96
2019-05-19T11:56:24.788Z,24.68
2019-05-19T11:58:54.202Z,24.70
2019-05-19T12:01:23.550Z,24.42
2019-05-19T12:03:55.436Z,24.35
2019-05-19T12:06:37.993Z,23.54
2019-05-19T12:08:56.077Z,23.46
2019-05-19T12:11:25.347Z,23.35
2019-05-19T12:13:54.679Z,23.30
2019-05-19T12:16:24.985Z,23.26
2019-05-19T12:18:57.426Z,23.17
2019-05-19T12:21:25.378Z,23.27
2019-05-19T12:23:54.680Z,23.26
2019-05-19T12:26:23.966Z,23.53
2019-05-19T12:28:54.664Z,23.22
2019-05-19T12:31:23.935Z,22.93
2019-05-19T12:33:53.319Z,23.10
2019-05-19T12:36:23.879Z,23.15
2019-05-19T12:38:53.456Z,23.54
2019-05-19T12:41:22.766Z,23.43
2019-05-19T12:43:53.597Z,23.33
2019-05-19T12:46:25.619Z,23.64
2019-05-19T12:48:54.950Z,23.31
2019-05-19T12:51:26.928Z,23.49
2019-05-19T12:53:56.523Z,23.39
2019-05-19T12:56:39.101Z,23.28
2019-05-19T12:58:57.966Z,23.42
2019-05-19T13:01:27.377Z,23.36
2019-05-19T13:03:59.151Z,23.69
2019-05-19T13:06:28.480Z,23.83
2019-05-19T13:08:57.827Z,23.72
2019-05-19T13:11:27.276Z,23.34
2019-05-19T13:13:56.721Z,23.14
2019-05-19T13:16:26.132Z,23.67
2019-05-19T13:18:55.466Z,24.68
2019-05-19T13:21:24.924Z,24.82
2019-05-19T13:23:55.818Z,25.04
2019-05-19T13:26:25.317Z,25.04
2019-05-19T13:28:54.629Z,24.86
2019-05-19T13:31:23.961Z,25.19
2019-05-19T13:33:53.263Z,25.87
2019-05-19T13:36:24.172Z,25.61
2019-05-19T13:38:53.477Z,25.10
2019-05-19T13:41:22.748Z,25.64
2019-05-19T13:43:52.135Z,25.19
2019-05-19T13:46:21.540Z,25.68
2019-05-19T13:48:50.902Z,25.16
2019-05-19T13:51:20.225Z,24.88
2019-05-19T13:53:51.162Z,24.28
2019-05-19T13:56:20.497Z,24.00
2019-05-19T13:58:49.794Z,23.70
2019-05-19T14:01:28.312Z,23.81
2019-05-19T14:03:52.102Z,23.94
2019-05-19T14:06:21.180Z,24.04
2019-05-19T14:08:50.463Z,23.82
2019-05-19T14:11:19.756Z,23.71
2019-05-19T14:13:49.103Z,23.83
2019-05-19T14:16:18.408Z,23.58
2019-05-19T14:18:47.726Z,23.57
2019-05-19T14:21:17.086Z,23.62
2019-05-19T14:23:46.383Z,23.89
2019-05-19T14:26:15.689Z,24.16
2019-05-19T14:28:46.457Z,24.05
2019-05-19T14:31:15.802Z,24.34
2019-05-19T14:33:46.565Z,24.19
2019-05-19T14:36:15.836Z,24.03
2019-05-19T14:39:05.447Z,23.89
2019-05-19T14:41:35.855Z,24.08
2019-05-19T14:44:05.598Z,23.80
2019-05-19T14:46:36.788Z,23.92
2019-05-19T14:49:06.121Z,24.34
2019-05-19T14:51:35.465Z,24.33
2019-05-19T14:54:04.874Z,24.81
2019-05-19T14:56:34.165Z,24.85
2019-05-19T14:59:03.543Z,24.80
2019-05-19T15:01:34.184Z,24.39
2019-05-19T15:04:03.555Z,24.39
2019-05-19T15:06:32.875Z,24.28
2019-05-19T15:09:02.151Z,24.43
2019-05-19T15:11:31.548Z,24.43
2019-05-19T15:14:00.833Z,24.22
2019-05-19T15:16:30.176Z,24.68
2019-05-19T15:18:59.489Z,24.72
2019-05-19T15:21:31.794Z,24.91
2019-05-19T15:23:59.858Z,24.86
2019-05-19T15:26:29.222Z,25.06
2019-05-19T15:28:58.879Z,25.00
2019-05-19T15:31:28.314Z,24.85
2019-05-19T15:33:57.582Z,24.46
2019-05-19T15:36:26.880Z,24.67
2019-05-19T15:38:56.187Z,24.14
2019-05-19T15:41:25.603Z,24.21
2019-05-19T15:43:56.270Z,24.27
2019-05-19T15:46:25.562Z,24.35
2019-05-19T15:48:54.912Z,24.14
2019-05-19T15:51:29.073Z,23.71
2019-05-19T15:53:55.263Z,23.88
2019-05-19T15:56:24.629Z,24.11
2019-05-19T15:58:53.922Z,23.72
2019-05-19T16:01:23.203Z,23.77
2019-05-19T16:03:52.520Z,23.76
2019-05-19T16:06:21.802Z,23.55
2019-05-19T16:08:51.115Z,23.35
2019-05-19T16:11:20.421Z,23.20
2019-05-19T16:13:49.720Z,23.19
2019-05-19T16:16:19.061Z,23.16
2019-05-19T16:18:48.508Z,23.20
2019-05-19T16:21:17.804Z,23.33
2019-05-19T16:23:47.098Z,23.47
2019-05-19T16:26:16.468Z,23.58
2019-05-19T16:28:46.999Z,23.47
2019-05-19T16:31:16.339Z,23.58
2019-05-19T16:33:45.594Z,23.67
2019-05-19T16:36:14.886Z,24.17
2019-05-19T16:38:45.405Z,23.90
2019-05-19T16:41:14.723Z,24.16
2019-05-19T16:43:44.059Z,23.93
2019-05-19T16:46:13.356Z,23.70
2019-05-19T16:48:42.802Z,23.51
2019-05-19T16:51:12.125Z,23.43
2019-05-19T16:53:44.901Z,23.43
2019-05-19T16:56:14.170Z,23.72
2019-05-19T16:58:45.678Z,23.65
2019-05-19T17:01:19.795Z,23.49
2019-05-19T17:03:48.094Z,23.55
2019-05-19T17:06:18.309Z,23.56
2019-05-19T17:08:48.038Z,23.10
2019-05-19T17:11:18.707Z,22.86
2019-05-19T17:13:48.389Z,22.16
2019-05-19T17:16:18.025Z,22.01
2019-05-19T17:18:47.600Z,21.93
2019-05-19T17:21:17.183Z,21.68
2019-05-19T17:23:46.760Z,21.66
2019-05-19T17:26:16.050Z,21.52
2019-05-19T17:28:59.841Z,21.71
2019-05-19T17:31:17.275Z,21.91
2019-05-19T17:33:46.852Z,21.88
2019-05-19T17:36:16.611Z,21.87
2019-05-19T17:38:45.927Z,21.79
2019-05-19T17:41:15.226Z,21.99
2019-05-19T17:43:44.566Z,21.78
2019-05-19T17:46:14.461Z,21.76
2019-05-19T17:48:43.783Z,21.82
2019-05-19T17:51:13.060Z,21.79
2019-05-19T17:53:43.024Z,21.63
2019-05-19T17:56:14.049Z,21.45
2019-05-19T17:58:44.315Z,21.52
2019-05-19T18:01:13.657Z,21.40
2019-05-19T18:03:43.185Z,21.50
2019-05-19T18:06:12.776Z,21.29
2019-05-19T18:08:42.598Z,21.22
2019-05-19T18:11:12.122Z,21.20
2019-05-19T18:13:41.718Z,21.24
2019-05-19T18:16:11.225Z,21.20
2019-05-19T18:18:40.565Z,20.98
2019-05-19T18:21:10.124Z,20.92
2019-05-19T18:23:39.779Z,20.75
2019-05-19T18:26:09.458Z,20.65
2019-05-19T18:28:38.905Z,20.44
2019-05-19T18:31:08.482Z,20.24
2019-05-19T18:33:38.684Z,20.06
2019-05-19T18:36:07.966Z,19.96
2019-05-19T18:38:38.859Z,19.95
2019-05-19T18:41:08.162Z,19.92
2019-05-19T18:43:37.470Z,19.58
2019-05-19T18:46:06.807Z,19.25
2019-05-19T18:48:36.177Z,18.92
2019-05-19T18:51:06.134Z,18.33
2019-05-19T18:53:35.951Z,17.20
2019-05-19T18:56:05.257Z,17.20
2019-05-19T18:58:34.579Z,17.01
2019-05-19T19:01:04.023Z,16.68
2019-05-19T19:03:34.872Z,16.47
2019-05-19T19:06:05.629Z,16.40
2019-05-19T19:08:37.749Z,16.34
2019-05-19T19:11:06.081Z,16.28
2019-05-19T19:13:35.421Z,16.32
2019-05-19T19:16:04.667Z,16.19
2019-05-19T19:18:33.978Z,16.12
2019-05-19T19:21:03.305Z,16.08
2019-05-19T19:23:32.966Z,16.06
2019-05-19T19:26:03.826Z,16.19
2019-05-19T19:28:33.664Z,16.25
2019-05-19T19:31:03.505Z,16.07
2019-05-19T19:33:33.292Z,16.08
2019-05-19T19:36:02.966Z,16.06
2019-05-19T19:38:34.207Z,16.09
2019-05-19T19:41:04.873Z,16.03
2019-05-19T19:43:34.587Z,16.06
2019-05-19T19:46:04.375Z,15.90
2019-05-19T19:48:33.903Z,15.90
2019-05-19T19:51:03.298Z,15.81
2019-05-19T19:53:32.957Z,15.55
2019-05-19T19:56:02.423Z,15.55
2019-05-19T19:58:31.802Z,15.54
2019-05-19T20:01:01.443Z,15.66
2019-05-19T20:03:31.331Z,15.77
2019-05-19T20:06:03.714Z,15.81
2019-05-19T20:08:34.431Z,15.76
2019-05-19T20:11:04.396Z,15.74
2019-05-19T20:13:34.036Z,15.85
2019-05-19T20:16:04.100Z,15.73
2019-05-19T20:18:33.708Z,16.09
2019-05-19T20:21:05.756Z,15.99
2019-05-19T20:23:35.436Z,15.90
2019-05-19T20:26:05.062Z,15.84
2019-05-19T20:28:34.895Z,15.99
2019-05-19T20:31:04.580Z,16.00
2019-05-19T20:33:34.438Z,15.82
2019-05-19T20:36:04.463Z,15.83
2019-05-19T20:38:33.932Z,15.90
2019-05-19T20:41:03.737Z,15.82
2019-05-19T20:43:34.737Z,15.70
2019-05-19T20:46:05.843Z,15.60
2019-05-19T20:48:35.483Z,15.38
2019-05-19T20:51:05.090Z,15.30
2019-05-19T20:53:34.703Z,15.28
2019-05-19T20:56:04.322Z,15.35
2019-05-19T20:58:34.225Z,15.38
2019-05-19T21:01:04.512Z,15.26
2019-05-19T21:03:33.774Z,15.26
2019-05-19T21:06:03.133Z,15.30
2019-05-19T21:08:32.936Z,15.38
2019-05-19T21:11:02.660Z,15.31
2019-05-19T21:13:31.936Z,15.20
2019-05-19T21:16:01.264Z,15.17
2019-05-19T21:18:30.628Z,15.07
2019-05-19T21:21:01.096Z,15.15
2019-05-19T21:23:31.882Z,15.15
2019-05-19T21:26:01.232Z,15.09
2019-05-19T21:28:30.532Z,15.07
2019-05-19T21:31:05.659Z,14.90
2019-05-19T21:33:31.499Z,14.79
2019-05-19T21:36:00.790Z,14.62
2019-05-19T21:38:30.155Z,14.54
2019-05-19T21:40:59.530Z,14.48
2019-05-19T21:43:28.814Z,14.47
2019-05-19T21:45:58.148Z,14.40
2019-05-19T21:48:34.620Z,14.42
2019-05-19T21:51:03.949Z,14.38
2019-05-19T21:53:33.195Z,14.45
2019-05-19T21:56:02.512Z,14.46
2019-05-19T21:58:32.334Z,14.43
2019-05-19T22:01:03.549Z,14.41
2019-05-19T22:03:33.410Z,14.33
2019-05-19T22:06:04.120Z,14.27
2019-05-19T22:08:33.403Z,14.48
2019-05-19T22:11:04.544Z,14.47
2019-05-19T22:13:33.694Z,14.36
2019-05-19T22:16:12.345Z,14.37
2019-05-19T22:18:34.811Z,14.31
2019-05-19T22:21:04.161Z,14.29
2019-05-19T22:23:34.640Z,14.23
2019-05-19T22:26:04.002Z,14.15
2019-05-19T22:28:33.445Z,14.12
2019-05-19T22:31:02.728Z,14.10
2019-05-19T22:33:32.018Z,14.17
2019-05-19T22:36:01.531Z,14.15
2019-05-19T22:38:30.895Z,14.08
2019-05-19T22:41:00.227Z,14.09
2019-05-19T22:43:29.528Z,14.11
2019-05-19T22:45:59.887Z,14.07
2019-05-19T22:48:29.182Z,14.06
2019-05-19T22:50:58.462Z,14.13
2019-05-19T22:53:27.756Z,13.97
2019-05-19T22:55:58.151Z,13.98
2019-05-19T22:58:27.430Z,13.97
2019-05-19T23:00:57.783Z,13.99
2019-05-19T23:03:27.076Z,14.02
2019-05-19T23:05:56.393Z,13.94
2019-05-19T23:08:25.706Z,13.91
2019-05-19T23:10:55.024Z,13.74
2019-05-19T23:13:24.265Z,13.79
2019-05-19T23:15:53.581Z,13.84
2019-05-19T23:18:22.869Z,13.77
2019-05-19T23:20:52.184Z,13.68
2019-05-19T23:23:21.489Z,13.74
2019-05-19T23:25:50.771Z,13.63
2019-05-19T23:28:20.070Z,13.64
2019-05-19T23:30:49.358Z,13.66
2019-05-19T23:33:18.661Z,13.59
2019-05-19T23:35:47.941Z,13.61
2019-05-19T23:38:17.236Z,13.62
2019-05-19T23:40:46.549Z,13.60
2019-05-19T23:43:15.883Z,13.62
2019-05-19T23:45:45.172Z,13.54
2019-05-19T23:48:14.520Z,13.76
2019-05-19T23:50:43.789Z,13.84
2019-05-19T23:53:13.085Z,13.80
2019-05-19T23:55:42.382Z,13.83
2019-05-19T23:58:11.651Z,13.80
